»·PEaware :: N583CA KCNO-KSBA

N583CA :: KCNO-KSBA

FLIGHT INFORMATION

Flight Status: Arrived
Operator: Privately registered:
United States
More flights under this callsign
Pilot: Scott G. (88)
Aircraft: CESSNA 340
(C340)
More flights by this aircraft type
Origin: KCNO Chino
United States
Destination: KSBA Santa Barbara Mun
United States
More flights between these airports :: More routes between these airports
Route: PDZ V186 DEANO V27 KWANG DCT
File this flight plan on PilotEdge
Remarks:
Altitude:
(Current/Filed)
6,000ft
Speed:
(Current/Filed)
180kts
Departed: 03-Dec-18 11:32 AM
Arrived: 03-Dec-18 12:19 PM
Distance/Time
Traveled:
113nm/0:47
Distance/Time
To Go:
Arrived

Flight Plot

Page will automatically refresh every two minutes.

Flight plan parsing failed; only flown route is shown


Map Options




Map Legend


Flown Route
Filed Route
Departure Airport
Arrival Airport
Navaid (VOR, NDB)
Fix

Horizontal Profiles

Position Reports

Time Latitude Longitude Heading Altitude Ground
Speed
03-Dec-18 11:11 33.978786 -117.639949 180 653ft 0kts
03-Dec-18 11:12 33.978786 -117.639949 180 653ft 0kts
03-Dec-18 11:13 33.978786 -117.639949 180 653ft 0kts
03-Dec-18 11:14 33.978786 -117.639949 180 653ft 0kts
03-Dec-18 11:15 33.978786 -117.639949 180 653ft 0kts
03-Dec-18 11:16 33.978786 -117.639949 180 653ft 0kts
03-Dec-18 11:17 33.978786 -117.639949 180 653ft 0kts
03-Dec-18 11:18 33.978786 -117.639949 180 653ft 0kts
03-Dec-18 11:19 33.978786 -117.639949 180 653ft 0kts
03-Dec-18 11:20 33.978786 -117.639949 180 653ft 0kts
03-Dec-18 11:21 33.978558 -117.639286 151 653ft 8kts
03-Dec-18 11:22 33.977284 -117.639229 179 653ft 0kts
03-Dec-18 11:23 33.977284 -117.639229 179 653ft 0kts
03-Dec-18 11:24 33.977284 -117.639229 179 653ft 0kts
03-Dec-18 11:25 33.977284 -117.639229 179 653ft 0kts
03-Dec-18 11:26 33.977282 -117.639229 179 653ft 0kts
03-Dec-18 11:27 33.976919 -117.635391 87 653ft 20kts
03-Dec-18 11:28 33.976778 -117.630416 197 653ft 4kts
03-Dec-18 11:29 33.976712 -117.630529 249 653ft 0kts
03-Dec-18 11:30 33.976712 -117.630529 249 653ft 0kts
03-Dec-18 11:31 33.976712 -117.630529 249 653ft 0kts
03-Dec-18 11:32 33.976702 -117.630569 254 653ft 1kts
03-Dec-18 11:33 33.976605 -117.630811 182 653ft 0kts
03-Dec-18 11:34 33.975918 -117.630820 182 653ft 0kts
03-Dec-18 11:35 33.975747 -117.646390 271 831ft 117kts
03-Dec-18 11:36 33.976379 -117.688126 270 1984ft 129kts
03-Dec-18 11:37 33.977565 -117.730113 272 3251ft 114kts
03-Dec-18 11:38 33.974766 -117.767850 228 4525ft 120kts
03-Dec-18 11:39 33.953811 -117.754039 96 5727ft 110kts
03-Dec-18 11:40 33.946678 -117.710417 96 6003ft 152kts
03-Dec-18 11:41 33.938484 -117.658904 96 5999ft 159kts
03-Dec-18 11:42 33.930720 -117.606128 83 5987ft 160kts
03-Dec-18 11:43 33.956985 -117.612841 270 6007ft 166kts
03-Dec-18 11:44 33.963117 -117.666189 298 6000ft 163kts
03-Dec-18 11:45 33.978953 -117.709619 296 5998ft 168kts
03-Dec-18 11:46 33.998422 -117.766409 295 5998ft 191kts
03-Dec-18 11:47 34.019381 -117.826684 288 6001ft 198kts
03-Dec-18 11:48 34.039122 -117.889413 290 6000ft 200kts
03-Dec-18 11:49 34.050486 -117.926241 294 5997ft 197kts
03-Dec-18 11:50 34.069816 -117.987887 293 5997ft 193kts
03-Dec-18 11:51 34.088443 -118.048330 292 5996ft 191kts
03-Dec-18 11:52 34.106527 -118.107364 291 6006ft 189kts
03-Dec-18 11:53 34.124785 -118.167161 292 6006ft 190kts
03-Dec-18 11:54 34.143066 -118.227019 292 6006ft 189kts
03-Dec-18 11:55 34.161275 -118.286752 292 6006ft 189kts
03-Dec-18 11:56 34.179398 -118.346326 292 6006ft 189kts
03-Dec-18 11:57 34.197437 -118.405738 292 6006ft 189kts
03-Dec-18 11:58 34.215571 -118.465588 292 6006ft 189kts
03-Dec-18 11:59 34.234805 -118.524536 294 6005ft 189kts
03-Dec-18 12:00 34.254917 -118.583259 294 6005ft 189kts
03-Dec-18 12:01 34.271702 -118.632306 295 6005ft 189kts
03-Dec-18 12:02 34.294828 -118.699922 295 6006ft 189kts
03-Dec-18 12:03 34.311676 -118.749248 295 6006ft 190kts
03-Dec-18 12:04 34.331874 -118.808476 296 6006ft 191kts
03-Dec-18 12:05 34.354819 -118.878469 280 5988ft 196kts
03-Dec-18 12:06 34.352667 -118.934277 269 6006ft 198kts
03-Dec-18 12:07 34.347133 -119.012303 268 5983ft 200kts
03-Dec-18 12:08 34.342991 -119.068259 268 5983ft 200kts
03-Dec-18 12:09 34.338000 -119.135217 268 5983ft 199kts
03-Dec-18 12:10 34.332996 -119.201940 268 5983ft 198kts
03-Dec-18 12:11 34.328017 -119.268049 268 5983ft 197kts
03-Dec-18 12:12 34.322966 -119.334286 268 5984ft 197kts
03-Dec-18 12:13 34.317907 -119.400348 268 5985ft 198kts
03-Dec-18 12:14 34.312449 -119.470867 267 5346ft 218kts
03-Dec-18 12:15 34.306935 -119.545199 267 4443ft 224kts
03-Dec-18 12:16 34.307965 -119.621500 272 3549ft 223kts
03-Dec-18 12:17 34.311929 -119.694033 286 2571ft 204kts
03-Dec-18 12:18 34.352548 -119.738487 321 1587ft 189kts
03-Dec-18 12:19 34.390608 -119.774472 323 1428ft 158kts
03-Dec-18 12:20 34.421247 -119.800843 330 1019ft 114kts
03-Dec-18 12:21 34.428039 -119.831040 265 80ft 88kts
03-Dec-18 12:22 34.428708 -119.841990 347 17ft 0kts
03-Dec-18 12:23 34.430665 -119.839906 68 17ft 18kts
03-Dec-18 12:24 34.432951 -119.835847 25 17ft 5kts
03-Dec-18 12:25 34.433027 -119.835499 178 17ft 0kts

Navigation Log

Ident Type
Flight plan parsing failed, navigation log unavailable